sensor_id;sensor_type;location;lat;lon;timestamp;P1;durP1;ratioP1;P2;durP2;ratioP2
22764;SDS011;11549;50.852;3.816;2023-06-26T00:01:28;9.02;;;4.72;;
22764;SDS011;11549;50.852;3.816;2023-06-26T00:03:59;8.38;;;4.38;;
22764;SDS011;11549;50.852;3.816;2023-06-26T00:06:29;8.25;;;4.45;;
22764;SDS011;11549;50.852;3.816;2023-06-26T00:08:57;9.05;;;4.63;;
22764;SDS011;11549;50.852;3.816;2023-06-26T00:11:26;8.73;;;4.28;;
22764;SDS011;11549;50.852;3.816;2023-06-26T00:13:57;9.38;;;4.95;;
22764;SDS011;11549;50.852;3.816;2023-06-26T00:16:26;8.35;;;4.90;;
22764;SDS011;11549;50.852;3.816;2023-06-26T00:18:54;10.25;;;4.65;;
22764;SDS011;11549;50.852;3.816;2023-06-26T00:21:24;7.80;;;4.40;;
22764;SDS011;11549;50.852;3.816;2023-06-26T00:23:54;8.00;;;3.75;;
22764;SDS011;11549;50.852;3.816;2023-06-26T00:26:22;9.63;;;4.38;;
22764;SDS011;11549;50.852;3.816;2023-06-26T00:28:51;7.80;;;4.20;;
22764;SDS011;11549;50.852;3.816;2023-06-26T00:31:19;9.38;;;4.50;;
22764;SDS011;11549;50.852;3.816;2023-06-26T00:33:48;9.32;;;4.20;;
22764;SDS011;11549;50.852;3.816;2023-06-26T00:36:16;8.43;;;4.18;;
22764;SDS011;11549;50.852;3.816;2023-06-26T00:38:45;11.52;;;4.88;;
22764;SDS011;11549;50.852;3.816;2023-06-26T00:41:14;8.35;;;4.15;;
22764;SDS011;11549;50.852;3.816;2023-06-26T00:43:42;7.55;;;4.30;;
22764;SDS011;11549;50.852;3.816;2023-06-26T00:46:11;6.72;;;3.50;;
22764;SDS011;11549;50.852;3.816;2023-06-26T00:48:41;7.68;;;3.90;;
22764;SDS011;11549;50.852;3.816;2023-06-26T00:51:12;9.52;;;4.10;;
22764;SDS011;11549;50.852;3.816;2023-06-26T00:53:41;8.07;;;3.88;;
22764;SDS011;11549;50.852;3.816;2023-06-26T00:56:11;8.07;;;4.03;;
22764;SDS011;11549;50.852;3.816;2023-06-26T00:58:39;7.70;;;4.20;;
22764;SDS011;11549;50.852;3.816;2023-06-26T01:01:08;9.20;;;4.18;;
22764;SDS011;11549;50.852;3.816;2023-06-26T01:03:43;7.80;;;3.88;;
22764;SDS011;11549;50.852;3.816;2023-06-26T01:06:13;11.00;;;4.20;;
22764;SDS011;11549;50.852;3.816;2023-06-26T01:08:42;6.97;;;3.90;;
22764;SDS011;11549;50.852;3.816;2023-06-26T01:11:13;8.65;;;4.57;;
22764;SDS011;11549;50.852;3.816;2023-06-26T01:13:42;9.45;;;4.32;;
22764;SDS011;11549;50.852;3.816;2023-06-26T01:16:11;12.27;;;4.28;;
22764;SDS011;11549;50.852;3.816;2023-06-26T01:18:40;10.85;;;4.18;;
22764;SDS011;11549;50.852;3.816;2023-06-26T01:21:09;11.75;;;4.50;;
22764;SDS011;11549;50.852;3.816;2023-06-26T01:23:39;8.90;;;4.70;;
22764;SDS011;11549;50.852;3.816;2023-06-26T01:26:32;10.85;;;4.75;;
22764;SDS011;11549;50.852;3.816;2023-06-26T01:29:03;9.18;;;4.57;;
22764;SDS011;11549;50.852;3.816;2023-06-26T01:31:34;8.43;;;4.38;;
22764;SDS011;11549;50.852;3.816;2023-06-26T01:34:02;11.70;;;5.00;;
22764;SDS011;11549;50.852;3.816;2023-06-26T01:36:31;12.75;;;4.68;;
22764;SDS011;11549;50.852;3.816;2023-06-26T01:38:59;13.07;;;5.53;;
22764;SDS011;11549;50.852;3.816;2023-06-26T01:41:28;12.40;;;5.00;;
22764;SDS011;11549;50.852;3.816;2023-06-26T01:44:01;11.85;;;5.40;;
22764;SDS011;11549;50.852;3.816;2023-06-26T01:46:35;14.57;;;5.47;;
22764;SDS011;11549;50.852;3.816;2023-06-26T01:49:07;10.15;;;4.80;;
22764;SDS011;11549;50.852;3.816;2023-06-26T01:51:44;14.23;;;5.55;;
22764;SDS011;11549;50.852;3.816;2023-06-26T01:54:17;12.88;;;5.25;;
22764;SDS011;11549;50.852;3.816;2023-06-26T01:56:49;12.43;;;5.15;;
22764;SDS011;11549;50.852;3.816;2023-06-26T01:59:21;13.30;;;5.85;;
22764;SDS011;11549;50.852;3.816;2023-06-26T02:01:52;13.57;;;5.47;;
22764;SDS011;11549;50.852;3.816;2023-06-26T02:04:20;12.38;;;5.20;;
22764;SDS011;11549;50.852;3.816;2023-06-26T02:06:49;13.35;;;5.88;;
22764;SDS011;11549;50.852;3.816;2023-06-26T02:09:17;12.55;;;5.50;;
22764;SDS011;11549;50.852;3.816;2023-06-26T02:11:46;13.02;;;5.38;;
22764;SDS011;11549;50.852;3.816;2023-06-26T02:14:14;14.15;;;5.85;;
22764;SDS011;11549;50.852;3.816;2023-06-26T02:16:44;13.05;;;5.72;;
22764;SDS011;11549;50.852;3.816;2023-06-26T02:19:12;12.77;;;5.75;;
22764;SDS011;11549;50.852;3.816;2023-06-26T02:21:48;15.48;;;6.55;;
22764;SDS011;11549;50.852;3.816;2023-06-26T02:24:16;18.02;;;6.28;;
22764;SDS011;11549;50.852;3.816;2023-06-26T02:26:44;15.15;;;6.18;;
22764;SDS011;11549;50.852;3.816;2023-06-26T02:29:13;16.33;;;5.93;;
22764;SDS011;11549;50.852;3.816;2023-06-26T02:31:41;12.98;;;6.32;;
22764;SDS011;11549;50.852;3.816;2023-06-26T02:34:11;21.80;;;6.75;;
22764;SDS011;11549;50.852;3.816;2023-06-26T02:36:40;12.55;;;5.32;;
22764;SDS011;11549;50.852;3.816;2023-06-26T02:39:08;16.40;;;5.88;;
22764;SDS011;11549;50.852;3.816;2023-06-26T02:41:36;14.90;;;6.40;;
22764;SDS011;11549;50.852;3.816;2023-06-26T02:44:05;14.70;;;6.03;;
22764;SDS011;11549;50.852;3.816;2023-06-26T02:46:33;17.35;;;6.57;;
22764;SDS011;11549;50.852;3.816;2023-06-26T02:49:03;18.52;;;6.47;;
22764;SDS011;11549;50.852;3.816;2023-06-26T02:51:32;14.27;;;6.32;;
22764;SDS011;11549;50.852;3.816;2023-06-26T02:54:00;21.27;;;6.55;;
22764;SDS011;11549;50.852;3.816;2023-06-26T02:56:29;17.85;;;6.53;;
22764;SDS011;11549;50.852;3.816;2023-06-26T02:58:58;16.38;;;6.03;;
22764;SDS011;11549;50.852;3.816;2023-06-26T03:01:26;20.30;;;6.32;;
22764;SDS011;11549;50.852;3.816;2023-06-26T03:03:55;16.40;;;6.18;;
22764;SDS011;11549;50.852;3.816;2023-06-26T03:06:25;19.08;;;6.57;;
22764;SDS011;11549;50.852;3.816;2023-06-26T03:08:53;18.10;;;6.28;;
22764;SDS011;11549;50.852;3.816;2023-06-26T03:11:21;15.68;;;6.47;;
22764;SDS011;11549;50.852;3.816;2023-06-26T03:13:50;19.50;;;6.65;;
22764;SDS011;11549;50.852;3.816;2023-06-26T03:16:18;21.90;;;6.57;;
22764;SDS011;11549;50.852;3.816;2023-06-26T03:18:46;16.58;;;6.30;;
22764;SDS011;11549;50.852;3.816;2023-06-26T03:21:14;20.73;;;6.25;;
22764;SDS011;11549;50.852;3.816;2023-06-26T03:23:44;18.88;;;6.35;;
22764;SDS011;11549;50.852;3.816;2023-06-26T03:26:13;16.60;;;6.28;;
22764;SDS011;11549;50.852;3.816;2023-06-26T03:28:42;20.15;;;6.47;;
22764;SDS011;11549;50.852;3.816;2023-06-26T03:31:10;19.60;;;6.40;;
22764;SDS011;11549;50.852;3.816;2023-06-26T03:33:38;19.58;;;6.60;;
22764;SDS011;11549;50.852;3.816;2023-06-26T03:36:06;20.52;;;5.95;;
22764;SDS011;11549;50.852;3.816;2023-06-26T03:38:35;17.85;;;6.18;;
22764;SDS011;11549;50.852;3.816;2023-06-26T03:41:05;18.27;;;6.25;;
22764;SDS011;11549;50.852;3.816;2023-06-26T03:43:33;17.60;;;5.53;;
22764;SDS011;11549;50.852;3.816;2023-06-26T03:46:01;16.77;;;6.47;;
22764;SDS011;11549;50.852;3.816;2023-06-26T03:48:29;21.15;;;6.65;;
22764;SDS011;11549;50.852;3.816;2023-06-26T03:50:58;15.63;;;5.75;;
22764;SDS011;11549;50.852;3.816;2023-06-26T03:53:27;16.92;;;5.70;;
22764;SDS011;11549;50.852;3.816;2023-06-26T03:55:56;17.00;;;5.35;;
22764;SDS011;11549;50.852;3.816;2023-06-26T03:58:25;20.65;;;6.18;;
22764;SDS011;11549;50.852;3.816;2023-06-26T04:00:53;21.95;;;6.00;;
22764;SDS011;11549;50.852;3.816;2023-06-26T04:03:23;18.48;;;6.00;;
22764;SDS011;11549;50.852;3.816;2023-06-26T04:05:51;18.70;;;5.40;;
22764;SDS011;11549;50.852;3.816;2023-06-26T04:08:20;15.93;;;5.60;;
22764;SDS011;11549;50.852;3.816;2023-06-26T04:10:48;14.73;;;5.32;;
22764;SDS011;11549;50.852;3.816;2023-06-26T04:13:18;14.32;;;5.22;;
22764;SDS011;11549;50.852;3.816;2023-06-26T04:15:48;19.25;;;5.00;;
22764;SDS011;11549;50.852;3.816;2023-06-26T04:18:16;18.25;;;5.00;;
22764;SDS011;11549;50.852;3.816;2023-06-26T04:23:33;14.63;;;4.65;;
22764;SDS011;11549;50.852;3.816;2023-06-26T04:26:02;16.38;;;4.53;;
22764;SDS011;11549;50.852;3.816;2023-06-26T04:28:31;11.18;;;3.92;;
22764;SDS011;11549;50.852;3.816;2023-06-26T04:31:01;14.75;;;4.35;;
22764;SDS011;11549;50.852;3.816;2023-06-26T04:33:30;12.57;;;4.00;;
22764;SDS011;11549;50.852;3.816;2023-06-26T04:35:59;17.00;;;4.28;;
22764;SDS011;11549;50.852;3.816;2023-06-26T04:38:30;16.92;;;4.03;;
22764;SDS011;11549;50.852;3.816;2023-06-26T04:40:58;15.25;;;4.03;;
22764;SDS011;11549;50.852;3.816;2023-06-26T04:43:27;12.30;;;3.97;;
22764;SDS011;11549;50.852;3.816;2023-06-26T04:45:55;13.10;;;3.72;;
22764;SDS011;11549;50.852;3.816;2023-06-26T04:48:25;13.73;;;4.70;;
22764;SDS011;11549;50.852;3.816;2023-06-26T04:50:55;13.48;;;3.50;;
22764;SDS011;11549;50.852;3.816;2023-06-26T04:53:25;13.93;;;4.00;;
22764;SDS011;11549;50.852;3.816;2023-06-26T04:55:53;13.15;;;3.53;;
22764;SDS011;11549;50.852;3.816;2023-06-26T04:58:22;14.63;;;4.30;;
22764;SDS011;11549;50.852;3.816;2023-06-26T05:00:50;11.38;;;3.53;;
22764;SDS011;11549;50.852;3.816;2023-06-26T05:03:18;15.02;;;3.55;;
22764;SDS011;11549;50.852;3.816;2023-06-26T05:05:48;10.43;;;3.20;;
22764;SDS011;11549;50.852;3.816;2023-06-26T05:08:17;13.10;;;3.53;;
22764;SDS011;11549;50.852;3.816;2023-06-26T05:10:49;11.52;;;3.13;;
22764;SDS011;11549;50.852;3.816;2023-06-26T05:13:19;16.38;;;3.00;;
22764;SDS011;11549;50.852;3.816;2023-06-26T05:15:48;9.48;;;3.50;;
22764;SDS011;11549;50.852;3.816;2023-06-26T05:18:17;9.73;;;3.15;;
22764;SDS011;11549;50.852;3.816;2023-06-26T05:20:46;12.73;;;3.40;;
22764;SDS011;11549;50.852;3.816;2023-06-26T05:23:16;8.85;;;2.97;;
22764;SDS011;11549;50.852;3.816;2023-06-26T05:25:46;9.32;;;3.17;;
22764;SDS011;11549;50.852;3.816;2023-06-26T05:28:14;13.48;;;3.13;;
22764;SDS011;11549;50.852;3.816;2023-06-26T05:30:43;9.85;;;2.72;;
22764;SDS011;11549;50.852;3.816;2023-06-26T05:33:13;9.85;;;2.78;;
22764;SDS011;11549;50.852;3.816;2023-06-26T05:35:45;7.55;;;2.40;;
22764;SDS011;11549;50.852;3.816;2023-06-26T05:38:16;8.70;;;2.58;;
22764;SDS011;11549;50.852;3.816;2023-06-26T05:40:45;7.63;;;2.20;;
22764;SDS011;11549;50.852;3.816;2023-06-26T05:43:14;8.65;;;2.10;;
22764;SDS011;11549;50.852;3.816;2023-06-26T05:45:42;11.68;;;2.83;;
22764;SDS011;11549;50.852;3.816;2023-06-26T05:48:10;7.50;;;2.33;;
22764;SDS011;11549;50.852;3.816;2023-06-26T05:50:39;8.30;;;2.20;;
22764;SDS011;11549;50.852;3.816;2023-06-26T05:53:08;7.65;;;2.10;;
22764;SDS011;11549;50.852;3.816;2023-06-26T05:55:39;6.43;;;2.20;;
22764;SDS011;11549;50.852;3.816;2023-06-26T05:58:10;7.35;;;2.30;;
22764;SDS011;11549;50.852;3.816;2023-06-26T06:00:39;7.45;;;2.33;;
22764;SDS011;11549;50.852;3.816;2023-06-26T06:03:09;9.07;;;2.45;;
22764;SDS011;11549;50.852;3.816;2023-06-26T06:05:37;6.30;;;2.03;;
22764;SDS011;11549;50.852;3.816;2023-06-26T06:08:06;9.80;;;2.17;;
22764;SDS011;11549;50.852;3.816;2023-06-26T06:10:34;7.40;;;2.10;;
22764;SDS011;11549;50.852;3.816;2023-06-26T06:13:04;8.70;;;2.25;;
22764;SDS011;11549;50.852;3.816;2023-06-26T06:15:33;7.57;;;2.08;;
22764;SDS011;11549;50.852;3.816;2023-06-26T06:18:01;8.20;;;2.53;;
22764;SDS011;11549;50.852;3.816;2023-06-26T06:20:29;8.75;;;2.17;;
22764;SDS011;11549;50.852;3.816;2023-06-26T06:22:58;8.00;;;2.30;;
22764;SDS011;11549;50.852;3.816;2023-06-26T06:25:26;10.13;;;2.10;;
22764;SDS011;11549;50.852;3.816;2023-06-26T06:27:54;10.55;;;2.22;;
22764;SDS011;11549;50.852;3.816;2023-06-26T06:30:24;8.85;;;2.08;;
22764;SDS011;11549;50.852;3.816;2023-06-26T06:33:10;7.20;;;2.20;;
22764;SDS011;11549;50.852;3.816;2023-06-26T06:35:38;7.13;;;2.17;;
22764;SDS011;11549;50.852;3.816;2023-06-26T06:38:06;9.80;;;2.20;;
22764;SDS011;11549;50.852;3.816;2023-06-26T06:40:35;13.20;;;2.67;;
22764;SDS011;11549;50.852;3.816;2023-06-26T06:43:03;7.15;;;2.22;;
22764;SDS011;11549;50.852;3.816;2023-06-26T06:45:33;11.57;;;2.22;;
22764;SDS011;11549;50.852;3.816;2023-06-26T06:48:01;8.65;;;2.10;;
22764;SDS011;11549;50.852;3.816;2023-06-26T06:50:30;6.65;;;1.75;;
22764;SDS011;11549;50.852;3.816;2023-06-26T06:52:58;7.47;;;1.80;;
22764;SDS011;11549;50.852;3.816;2023-06-26T06:55:27;10.55;;;2.28;;
22764;SDS011;11549;50.852;3.816;2023-06-26T06:57:55;8.02;;;2.42;;
22764;SDS011;11549;50.852;3.816;2023-06-26T07:00:23;8.43;;;2.28;;
22764;SDS011;11549;50.852;3.816;2023-06-26T07:02:54;6.55;;;1.90;;
22764;SDS011;11549;50.852;3.816;2023-06-26T07:05:23;4.95;;;1.63;;
22764;SDS011;11549;50.852;3.816;2023-06-26T07:07:51;9.02;;;2.15;;
22764;SDS011;11549;50.852;3.816;2023-06-26T07:10:20;6.78;;;1.80;;
22764;SDS011;11549;50.852;3.816;2023-06-26T07:12:48;10.85;;;2.35;;
22764;SDS011;11549;50.852;3.816;2023-06-26T07:15:22;6.82;;;1.70;;
22764;SDS011;11549;50.852;3.816;2023-06-26T07:17:54;7.63;;;1.83;;
22764;SDS011;11549;50.852;3.816;2023-06-26T07:20:23;9.13;;;2.00;;
22764;SDS011;11549;50.852;3.816;2023-06-26T07:22:52;8.32;;;1.88;;
22764;SDS011;11549;50.852;3.816;2023-06-26T07:25:20;6.07;;;1.80;;
22764;SDS011;11549;50.852;3.816;2023-06-26T07:27:49;6.07;;;1.95;;
22764;SDS011;11549;50.852;3.816;2023-06-26T07:30:17;6.72;;;1.67;;
22764;SDS011;11549;50.852;3.816;2023-06-26T07:32:45;6.38;;;1.90;;
22764;SDS011;11549;50.852;3.816;2023-06-26T07:35:15;7.05;;;1.90;;
22764;SDS011;11549;50.852;3.816;2023-06-26T07:37:44;8.45;;;1.55;;
22764;SDS011;11549;50.852;3.816;2023-06-26T07:40:12;7.63;;;1.50;;
22764;SDS011;11549;50.852;3.816;2023-06-26T07:42:40;4.95;;;1.50;;
22764;SDS011;11549;50.852;3.816;2023-06-26T07:45:09;7.20;;;1.90;;
22764;SDS011;11549;50.852;3.816;2023-06-26T07:47:39;6.35;;;1.65;;
22764;SDS011;11549;50.852;3.816;2023-06-26T07:50:07;6.72;;;1.70;;
22764;SDS011;11549;50.852;3.816;2023-06-26T07:52:37;7.22;;;2.40;;
22764;SDS011;11549;50.852;3.816;2023-06-26T07:55:06;6.10;;;2.15;;
22764;SDS011;11549;50.852;3.816;2023-06-26T07:57:34;6.15;;;1.60;;
22764;SDS011;11549;50.852;3.816;2023-06-26T08:00:03;7.38;;;1.80;;
22764;SDS011;11549;50.852;3.816;2023-06-26T08:02:33;7.38;;;2.10;;
22764;SDS011;11549;50.852;3.816;2023-06-26T08:05:01;5.55;;;1.73;;
22764;SDS011;11549;50.852;3.816;2023-06-26T08:07:30;7.55;;;1.80;;
22764;SDS011;11549;50.852;3.816;2023-06-26T08:10:00;6.80;;;1.83;;
22764;SDS011;11549;50.852;3.816;2023-06-26T08:12:28;9.57;;;1.73;;
22764;SDS011;11549;50.852;3.816;2023-06-26T08:14:56;6.07;;;1.42;;
22764;SDS011;11549;50.852;3.816;2023-06-26T08:17:24;5.28;;;1.58;;
22764;SDS011;11549;50.852;3.816;2023-06-26T08:19:55;9.43;;;2.00;;
22764;SDS011;11549;50.852;3.816;2023-06-26T08:22:24;5.43;;;1.58;;
22764;SDS011;11549;50.852;3.816;2023-06-26T08:24:52;6.35;;;1.98;;
22764;SDS011;11549;50.852;3.816;2023-06-26T08:27:22;4.80;;;1.67;;
22764;SDS011;11549;50.852;3.816;2023-06-26T08:29:50;5.40;;;1.67;;
22764;SDS011;11549;50.852;3.816;2023-06-26T08:32:18;6.05;;;1.83;;
22764;SDS011;11549;50.852;3.816;2023-06-26T08:34:47;6.70;;;1.77;;
22764;SDS011;11549;50.852;3.816;2023-06-26T08:37:15;6.60;;;1.67;;
22764;SDS011;11549;50.852;3.816;2023-06-26T08:39:43;8.20;;;1.67;;
22764;SDS011;11549;50.852;3.816;2023-06-26T08:42:12;5.72;;;1.45;;
22764;SDS011;11549;50.852;3.816;2023-06-26T08:44:42;6.45;;;1.75;;
22764;SDS011;11549;50.852;3.816;2023-06-26T08:47:27;4.35;;;1.23;;
22764;SDS011;11549;50.852;3.816;2023-06-26T08:49:59;5.78;;;1.90;;
22764;SDS011;11549;50.852;3.816;2023-06-26T08:52:33;5.53;;;1.50;;
22764;SDS011;11549;50.852;3.816;2023-06-26T08:55:06;6.28;;;1.58;;
22764;SDS011;11549;50.852;3.816;2023-06-26T08:57:38;6.30;;;1.65;;
22764;SDS011;11549;50.852;3.816;2023-06-26T09:00:09;5.82;;;1.60;;
22764;SDS011;11549;50.852;3.816;2023-06-26T09:02:41;5.25;;;1.48;;
22764;SDS011;11549;50.852;3.816;2023-06-26T09:05:12;5.07;;;1.55;;
22764;SDS011;11549;50.852;3.816;2023-06-26T09:07:40;5.72;;;1.60;;
22764;SDS011;11549;50.852;3.816;2023-06-26T09:10:09;6.45;;;1.60;;
22764;SDS011;11549;50.852;3.816;2023-06-26T09:12:38;7.68;;;1.95;;
22764;SDS011;11549;50.852;3.816;2023-06-26T09:15:07;7.22;;;1.98;;
22764;SDS011;11549;50.852;3.816;2023-06-26T09:17:38;5.10;;;1.77;;
22764;SDS011;11549;50.852;3.816;2023-06-26T09:20:08;6.65;;;2.00;;
22764;SDS011;11549;50.852;3.816;2023-06-26T09:22:41;6.70;;;1.75;;
22764;SDS011;11549;50.852;3.816;2023-06-26T09:25:10;5.50;;;1.85;;
22764;SDS011;11549;50.852;3.816;2023-06-26T09:27:38;6.18;;;1.70;;
22764;SDS011;11549;50.852;3.816;2023-06-26T09:30:07;4.30;;;1.50;;
22764;SDS011;11549;50.852;3.816;2023-06-26T09:32:37;7.53;;;2.28;;
22764;SDS011;11549;50.852;3.816;2023-06-26T09:35:06;4.55;;;1.58;;
22764;SDS011;11549;50.852;3.816;2023-06-26T09:37:35;5.60;;;1.90;;
22764;SDS011;11549;50.852;3.816;2023-06-26T09:40:04;5.35;;;1.58;;
22764;SDS011;11549;50.852;3.816;2023-06-26T09:42:33;4.28;;;1.60;;
22764;SDS011;11549;50.852;3.816;2023-06-26T09:45:02;6.22;;;1.83;;
22764;SDS011;11549;50.852;3.816;2023-06-26T09:47:32;7.47;;;2.00;;
22764;SDS011;11549;50.852;3.816;2023-06-26T09:50:02;4.03;;;1.73;;
22764;SDS011;11549;50.852;3.816;2023-06-26T09:52:32;7.10;;;1.80;;
22764;SDS011;11549;50.852;3.816;2023-06-26T09:55:09;5.07;;;1.77;;
22764;SDS011;11549;50.852;3.816;2023-06-26T09:57:38;4.32;;;1.63;;
22764;SDS011;11549;50.852;3.816;2023-06-26T10:00:08;5.20;;;1.90;;
22764;SDS011;11549;50.852;3.816;2023-06-26T10:02:40;4.90;;;1.60;;
22764;SDS011;11549;50.852;3.816;2023-06-26T10:05:09;6.15;;;1.77;;
22764;SDS011;11549;50.852;3.816;2023-06-26T10:07:37;7.68;;;2.10;;
22764;SDS011;11549;50.852;3.816;2023-06-26T10:10:07;5.80;;;1.33;;
22764;SDS011;11549;50.852;3.816;2023-06-26T10:12:37;5.35;;;1.70;;
22764;SDS011;11549;50.852;3.816;2023-06-26T10:15:06;7.15;;;1.75;;
22764;SDS011;11549;50.852;3.816;2023-06-26T10:17:40;6.07;;;1.60;;
22764;SDS011;11549;50.852;3.816;2023-06-26T10:20:11;5.38;;;1.52;;
22764;SDS011;11549;50.852;3.816;2023-06-26T10:22:44;5.30;;;1.48;;
22764;SDS011;11549;50.852;3.816;2023-06-26T10:25:14;4.18;;;1.60;;
22764;SDS011;11549;50.852;3.816;2023-06-26T10:27:47;4.47;;;1.60;;
22764;SDS011;11549;50.852;3.816;2023-06-26T10:30:20;5.07;;;1.58;;
22764;SDS011;11549;50.852;3.816;2023-06-26T10:32:53;4.10;;;1.50;;
22764;SDS011;11549;50.852;3.816;2023-06-26T10:35:23;4.47;;;1.70;;
22764;SDS011;11549;50.852;3.816;2023-06-26T10:37:53;6.85;;;1.80;;
22764;SDS011;11549;50.852;3.816;2023-06-26T10:40:39;5.85;;;2.92;;
22764;SDS011;11549;50.852;3.816;2023-06-26T10:43:09;5.82;;;1.88;;
22764;SDS011;11549;50.852;3.816;2023-06-26T10:45:42;4.90;;;1.40;;
22764;SDS011;11549;50.852;3.816;2023-06-26T10:48:14;4.93;;;1.40;;
22764;SDS011;11549;50.852;3.816;2023-06-26T10:50:43;3.38;;;1.38;;
22764;SDS011;11549;50.852;3.816;2023-06-26T10:53:14;3.70;;;1.20;;
22764;SDS011;11549;50.852;3.816;2023-06-26T10:55:54;5.78;;;1.30;;
22764;SDS011;11549;50.852;3.816;2023-06-26T10:58:31;3.55;;;1.33;;
22764;SDS011;11549;50.852;3.816;2023-06-26T11:04:00;4.82;;;1.40;;
22764;SDS011;11549;50.852;3.816;2023-06-26T11:06:33;6.25;;;1.35;;
22764;SDS011;11549;50.852;3.816;2023-06-26T11:09:08;3.65;;;1.50;;
22764;SDS011;11549;50.852;3.816;2023-06-26T11:11:57;5.60;;;1.38;;
22764;SDS011;11549;50.852;3.816;2023-06-26T11:14:32;5.82;;;1.80;;
22764;SDS011;11549;50.852;3.816;2023-06-26T11:17:03;7.38;;;2.95;;
22764;SDS011;11549;50.852;3.816;2023-06-26T11:19:34;5.00;;;1.65;;
22764;SDS011;11549;50.852;3.816;2023-06-26T11:22:03;5.03;;;1.60;;
22764;SDS011;11549;50.852;3.816;2023-06-26T11:24:32;4.88;;;1.50;;
22764;SDS011;11549;50.852;3.816;2023-06-26T11:27:02;3.63;;;1.58;;
22764;SDS011;11549;50.852;3.816;2023-06-26T11:29:32;5.30;;;1.60;;
22764;SDS011;11549;50.852;3.816;2023-06-26T11:32:02;5.07;;;1.70;;
22764;SDS011;11549;50.852;3.816;2023-06-26T11:34:34;5.15;;;1.50;;
22764;SDS011;11549;50.852;3.816;2023-06-26T11:37:04;4.28;;;1.50;;
22764;SDS011;11549;50.852;3.816;2023-06-26T11:39:34;5.25;;;1.60;;
22764;SDS011;11549;50.852;3.816;2023-06-26T11:42:04;6.70;;;1.58;;
22764;SDS011;11549;50.852;3.816;2023-06-26T11:44:32;7.90;;;2.88;;
22764;SDS011;11549;50.852;3.816;2023-06-26T11:47:11;5.82;;;1.55;;
22764;SDS011;11549;50.852;3.816;2023-06-26T11:49:43;5.35;;;1.65;;
22764;SDS011;11549;50.852;3.816;2023-06-26T11:52:12;7.10;;;1.45;;
22764;SDS011;11549;50.852;3.816;2023-06-26T11:54:42;4.55;;;1.38;;
22764;SDS011;11549;50.852;3.816;2023-06-26T11:57:13;4.78;;;1.40;;
22764;SDS011;11549;50.852;3.816;2023-06-26T11:59:44;4.93;;;1.63;;
22764;SDS011;11549;50.852;3.816;2023-06-26T12:02:13;6.30;;;1.73;;
22764;SDS011;11549;50.852;3.816;2023-06-26T12:04:44;4.15;;;1.52;;
22764;SDS011;11549;50.852;3.816;2023-06-26T12:07:13;4.72;;;1.48;;
22764;SDS011;11549;50.852;3.816;2023-06-26T12:09:43;6.40;;;2.72;;
22764;SDS011;11549;50.852;3.816;2023-06-26T12:12:14;6.85;;;2.30;;
22764;SDS011;11549;50.852;3.816;2023-06-26T12:14:44;6.07;;;1.67;;
22764;SDS011;11549;50.852;3.816;2023-06-26T12:17:13;7.13;;;1.30;;
22764;SDS011;11549;50.852;3.816;2023-06-26T12:19:44;5.03;;;1.60;;
22764;SDS011;11549;50.852;3.816;2023-06-26T12:22:15;5.13;;;1.52;;
22764;SDS011;11549;50.852;3.816;2023-06-26T12:24:44;4.82;;;1.40;;
22764;SDS011;11549;50.852;3.816;2023-06-26T12:27:14;5.65;;;1.52;;
22764;SDS011;11549;50.852;3.816;2023-06-26T12:29:45;4.60;;;1.25;;
22764;SDS011;11549;50.852;3.816;2023-06-26T12:32:17;3.58;;;1.20;;
22764;SDS011;11549;50.852;3.816;2023-06-26T12:34:48;4.93;;;1.70;;
22764;SDS011;11549;50.852;3.816;2023-06-26T12:37:17;3.53;;;1.27;;
22764;SDS011;11549;50.852;3.816;2023-06-26T12:39:46;4.72;;;1.50;;
22764;SDS011;11549;50.852;3.816;2023-06-26T12:42:16;4.20;;;1.50;;
22764;SDS011;11549;50.852;3.816;2023-06-26T12:44:45;4.65;;;1.30;;
22764;SDS011;11549;50.852;3.816;2023-06-26T12:47:14;4.35;;;1.63;;
22764;SDS011;11549;50.852;3.816;2023-06-26T12:49:43;4.97;;;1.10;;
22764;SDS011;11549;50.852;3.816;2023-06-26T12:52:15;5.00;;;1.30;;
22764;SDS011;11549;50.852;3.816;2023-06-26T12:54:45;4.95;;;1.30;;
22764;SDS011;11549;50.852;3.816;2023-06-26T12:57:14;4.50;;;1.25;;
22764;SDS011;11549;50.852;3.816;2023-06-26T12:59:42;6.53;;;1.30;;
22764;SDS011;11549;50.852;3.816;2023-06-26T13:02:11;6.53;;;1.40;;
22764;SDS011;11549;50.852;3.816;2023-06-26T13:04:39;3.88;;;1.48;;
22764;SDS011;11549;50.852;3.816;2023-06-26T13:07:11;3.97;;;1.60;;
22764;SDS011;11549;50.852;3.816;2023-06-26T13:09:41;4.28;;;1.20;;
22764;SDS011;11549;50.852;3.816;2023-06-26T13:12:10;6.18;;;1.40;;
22764;SDS011;11549;50.852;3.816;2023-06-26T13:14:39;2.42;;;1.02;;
22764;SDS011;11549;50.852;3.816;2023-06-26T13:17:07;6.35;;;1.40;;
22764;SDS011;11549;50.852;3.816;2023-06-26T13:19:35;4.18;;;1.30;;
22764;SDS011;11549;50.852;3.816;2023-06-26T13:22:04;5.47;;;1.55;;
22764;SDS011;11549;50.852;3.816;2023-06-26T13:24:34;4.45;;;1.48;;
22764;SDS011;11549;50.852;3.816;2023-06-26T13:27:04;6.05;;;1.45;;
22764;SDS011;11549;50.852;3.816;2023-06-26T13:29:32;3.65;;;1.27;;
22764;SDS011;11549;50.852;3.816;2023-06-26T13:32:01;5.88;;;1.40;;
22764;SDS011;11549;50.852;3.816;2023-06-26T13:34:30;4.25;;;1.73;;
22764;SDS011;11549;50.852;3.816;2023-06-26T13:36:58;4.38;;;1.35;;
22764;SDS011;11549;50.852;3.816;2023-06-26T13:39:27;3.70;;;1.50;;
22764;SDS011;11549;50.852;3.816;2023-06-26T13:41:55;4.55;;;1.65;;
22764;SDS011;11549;50.852;3.816;2023-06-26T13:44:25;4.72;;;1.50;;
22764;SDS011;11549;50.852;3.816;2023-06-26T13:47:04;3.88;;;1.40;;
22764;SDS011;11549;50.852;3.816;2023-06-26T13:49:35;5.22;;;1.63;;
22764;SDS011;11549;50.852;3.816;2023-06-26T13:52:04;7.95;;;1.75;;
22764;SDS011;11549;50.852;3.816;2023-06-26T13:54:34;4.90;;;1.63;;
22764;SDS011;11549;50.852;3.816;2023-06-26T13:57:03;5.32;;;1.67;;
22764;SDS011;11549;50.852;3.816;2023-06-26T13:59:33;8.18;;;2.15;;
22764;SDS011;11549;50.852;3.816;2023-06-26T14:02:04;4.95;;;1.95;;
22764;SDS011;11549;50.852;3.816;2023-06-26T14:04:33;6.80;;;1.95;;
22764;SDS011;11549;50.852;3.816;2023-06-26T14:07:01;6.15;;;1.70;;
22764;SDS011;11549;50.852;3.816;2023-06-26T14:09:30;6.90;;;1.90;;
22764;SDS011;11549;50.852;3.816;2023-06-26T14:11:58;5.13;;;1.65;;
22764;SDS011;11549;50.852;3.816;2023-06-26T14:14:26;5.75;;;1.95;;
22764;SDS011;11549;50.852;3.816;2023-06-26T14:16:56;5.97;;;1.80;;
22764;SDS011;11549;50.852;3.816;2023-06-26T14:19:25;4.40;;;1.70;;
22764;SDS011;11549;50.852;3.816;2023-06-26T14:21:54;4.38;;;2.08;;
22764;SDS011;11549;50.852;3.816;2023-06-26T14:24:22;3.65;;;1.75;;
22764;SDS011;11549;50.852;3.816;2023-06-26T14:26:50;8.05;;;1.85;;
22764;SDS011;11549;50.852;3.816;2023-06-26T14:29:19;4.53;;;1.60;;
22764;SDS011;11549;50.852;3.816;2023-06-26T14:31:48;7.78;;;1.90;;
22764;SDS011;11549;50.852;3.816;2023-06-26T14:34:19;6.90;;;1.80;;
22764;SDS011;11549;50.852;3.816;2023-06-26T14:36:51;5.13;;;1.80;;
22764;SDS011;11549;50.852;3.816;2023-06-26T14:39:19;5.88;;;1.80;;
22764;SDS011;11549;50.852;3.816;2023-06-26T14:41:48;6.90;;;1.90;;
22764;SDS011;11549;50.852;3.816;2023-06-26T14:44:17;5.07;;;1.83;;
22764;SDS011;11549;50.852;3.816;2023-06-26T14:46:46;5.47;;;1.73;;
22764;SDS011;11549;50.852;3.816;2023-06-26T14:49:14;5.47;;;1.98;;
22764;SDS011;11549;50.852;3.816;2023-06-26T14:51:44;5.78;;;1.67;;
22764;SDS011;11549;50.852;3.816;2023-06-26T14:54:13;6.15;;;1.45;;
22764;SDS011;11549;50.852;3.816;2023-06-26T14:56:41;5.30;;;1.45;;
22764;SDS011;11549;50.852;3.816;2023-06-26T14:59:12;4.60;;;1.50;;
22764;SDS011;11549;50.852;3.816;2023-06-26T15:01:41;5.35;;;1.50;;
22764;SDS011;11549;50.852;3.816;2023-06-26T15:04:09;6.40;;;1.80;;